sensor_id;sensor_type;location;lat;lon;timestamp;P1;durP1;ratioP1;P2;durP2;ratioP2
23990;SDS011;12205;50.600;4.608;2023-01-20T00:01:30;15.95;;;5.13;;
23990;SDS011;12205;50.600;4.608;2023-01-20T00:03:58;31.10;;;7.60;;
23990;SDS011;12205;50.600;4.608;2023-01-20T00:06:25;32.40;;;8.55;;
23990;SDS011;12205;50.600;4.608;2023-01-20T00:08:54;31.02;;;8.27;;
23990;SDS011;12205;50.600;4.608;2023-01-20T00:11:23;28.60;;;7.70;;
23990;SDS011;12205;50.600;4.608;2023-01-20T00:13:52;31.50;;;8.48;;
23990;SDS011;12205;50.600;4.608;2023-01-20T00:16:22;32.70;;;8.45;;
23990;SDS011;12205;50.600;4.608;2023-01-20T00:18:51;28.88;;;8.07;;
23990;SDS011;12205;50.600;4.608;2023-01-20T00:21:19;27.60;;;7.82;;
23990;SDS011;12205;50.600;4.608;2023-01-20T00:23:47;30.92;;;8.07;;
23990;SDS011;12205;50.600;4.608;2023-01-20T00:26:16;30.48;;;7.95;;
23990;SDS011;12205;50.600;4.608;2023-01-20T00:28:45;34.63;;;8.15;;
23990;SDS011;12205;50.600;4.608;2023-01-20T00:31:14;35.63;;;8.98;;
23990;SDS011;12205;50.600;4.608;2023-01-20T00:33:46;35.28;;;8.73;;
23990;SDS011;12205;50.600;4.608;2023-01-20T00:36:15;19.80;;;5.63;;
23990;SDS011;12205;50.600;4.608;2023-01-20T00:38:44;28.23;;;8.27;;
23990;SDS011;12205;50.600;4.608;2023-01-20T00:41:12;33.35;;;8.45;;
23990;SDS011;12205;50.600;4.608;2023-01-20T00:43:40;42.75;;;10.27;;
23990;SDS011;12205;50.600;4.608;2023-01-20T00:46:08;33.67;;;8.52;;
23990;SDS011;12205;50.600;4.608;2023-01-20T00:48:35;27.75;;;8.05;;
23990;SDS011;12205;50.600;4.608;2023-01-20T00:51:05;34.33;;;8.30;;
23990;SDS011;12205;50.600;4.608;2023-01-20T00:53:34;41.05;;;9.20;;
23990;SDS011;12205;50.600;4.608;2023-01-20T00:56:02;35.83;;;9.18;;
23990;SDS011;12205;50.600;4.608;2023-01-20T00:58:30;33.63;;;8.13;;
23990;SDS011;12205;50.600;4.608;2023-01-20T01:00:57;32.95;;;8.85;;
23990;SDS011;12205;50.600;4.608;2023-01-20T01:03:25;26.30;;;7.03;;
23990;SDS011;12205;50.600;4.608;2023-01-20T01:05:53;35.03;;;8.57;;
23990;SDS011;12205;50.600;4.608;2023-01-20T01:08:31;35.17;;;8.57;;
23990;SDS011;12205;50.600;4.608;2023-01-20T01:10:59;31.20;;;9.30;;
23990;SDS011;12205;50.600;4.608;2023-01-20T01:13:26;32.60;;;8.13;;
23990;SDS011;12205;50.600;4.608;2023-01-20T01:15:53;33.95;;;8.20;;
23990;SDS011;12205;50.600;4.608;2023-01-20T01:18:20;33.97;;;8.60;;
23990;SDS011;12205;50.600;4.608;2023-01-20T01:20:48;34.72;;;8.90;;
23990;SDS011;12205;50.600;4.608;2023-01-20T01:23:15;32.40;;;8.20;;
23990;SDS011;12205;50.600;4.608;2023-01-20T01:25:43;36.35;;;9.20;;
23990;SDS011;12205;50.600;4.608;2023-01-20T01:28:11;43.72;;;8.80;;
23990;SDS011;12205;50.600;4.608;2023-01-20T01:30:38;32.55;;;8.05;;
23990;SDS011;12205;50.600;4.608;2023-01-20T01:33:05;37.85;;;10.65;;
23990;SDS011;12205;50.600;4.608;2023-01-20T01:35:32;37.17;;;9.10;;
23990;SDS011;12205;50.600;4.608;2023-01-20T01:37:59;39.38;;;9.32;;
23990;SDS011;12205;50.600;4.608;2023-01-20T01:40:26;36.35;;;8.95;;
23990;SDS011;12205;50.600;4.608;2023-01-20T01:42:55;33.78;;;8.60;;
23990;SDS011;12205;50.600;4.608;2023-01-20T01:45:23;43.90;;;9.40;;
23990;SDS011;12205;50.600;4.608;2023-01-20T01:47:54;37.50;;;9.02;;
23990;SDS011;12205;50.600;4.608;2023-01-20T01:50:30;37.08;;;8.82;;
23990;SDS011;12205;50.600;4.608;2023-01-20T01:53:03;39.42;;;9.40;;
23990;SDS011;12205;50.600;4.608;2023-01-20T01:55:33;36.75;;;8.77;;
23990;SDS011;12205;50.600;4.608;2023-01-20T01:58:08;37.42;;;9.05;;
23990;SDS011;12205;50.600;4.608;2023-01-20T02:00:42;37.75;;;10.15;;
23990;SDS011;12205;50.600;4.608;2023-01-20T02:03:10;40.80;;;9.60;;
23990;SDS011;12205;50.600;4.608;2023-01-20T02:05:38;28.85;;;7.75;;
23990;SDS011;12205;50.600;4.608;2023-01-20T02:08:10;38.75;;;8.95;;
23990;SDS011;12205;50.600;4.608;2023-01-20T02:10:37;35.70;;;8.98;;
23990;SDS011;12205;50.600;4.608;2023-01-20T02:13:04;33.53;;;9.05;;
23990;SDS011;12205;50.600;4.608;2023-01-20T02:15:34;34.60;;;8.48;;
23990;SDS011;12205;50.600;4.608;2023-01-20T02:18:11;46.00;;;10.07;;
23990;SDS011;12205;50.600;4.608;2023-01-20T02:21:04;38.95;;;9.50;;
23990;SDS011;12205;50.600;4.608;2023-01-20T02:24:15;33.33;;;8.55;;
23990;SDS011;12205;50.600;4.608;2023-01-20T02:27:43;30.75;;;8.05;;
23990;SDS011;12205;50.600;4.608;2023-01-20T02:30:43;35.47;;;9.10;;
23990;SDS011;12205;50.600;4.608;2023-01-20T02:33:39;43.22;;;10.65;;
23990;SDS011;12205;50.600;4.608;2023-01-20T02:36:14;34.85;;;9.07;;
23990;SDS011;12205;50.600;4.608;2023-01-20T02:38:54;40.15;;;9.95;;
23990;SDS011;12205;50.600;4.608;2023-01-20T02:41:31;33.83;;;8.57;;
23990;SDS011;12205;50.600;4.608;2023-01-20T02:44:09;41.00;;;9.85;;
23990;SDS011;12205;50.600;4.608;2023-01-20T02:46:46;35.50;;;8.60;;
23990;SDS011;12205;50.600;4.608;2023-01-20T02:49:22;42.08;;;10.35;;
23990;SDS011;12205;50.600;4.608;2023-01-20T02:51:55;39.75;;;10.57;;
23990;SDS011;12205;50.600;4.608;2023-01-20T02:54:29;29.45;;;8.43;;
23990;SDS011;12205;50.600;4.608;2023-01-20T02:57:01;35.13;;;8.98;;
23990;SDS011;12205;50.600;4.608;2023-01-20T02:59:36;35.47;;;8.70;;
23990;SDS011;12205;50.600;4.608;2023-01-20T03:02:10;34.28;;;9.18;;
23990;SDS011;12205;50.600;4.608;2023-01-20T03:04:44;39.97;;;9.80;;
23990;SDS011;12205;50.600;4.608;2023-01-20T03:07:18;35.10;;;8.88;;
23990;SDS011;12205;50.600;4.608;2023-01-20T03:09:50;33.72;;;8.90;;
23990;SDS011;12205;50.600;4.608;2023-01-20T03:12:23;34.17;;;9.15;;
23990;SDS011;12205;50.600;4.608;2023-01-20T03:14:56;36.45;;;9.55;;
23990;SDS011;12205;50.600;4.608;2023-01-20T03:17:24;39.72;;;11.27;;
23990;SDS011;12205;50.600;4.608;2023-01-20T03:19:53;36.50;;;9.77;;
23990;SDS011;12205;50.600;4.608;2023-01-20T03:22:20;34.83;;;9.43;;
23990;SDS011;12205;50.600;4.608;2023-01-20T03:24:48;38.03;;;8.95;;
23990;SDS011;12205;50.600;4.608;2023-01-20T03:27:16;36.78;;;9.15;;
23990;SDS011;12205;50.600;4.608;2023-01-20T03:29:43;35.03;;;9.30;;
23990;SDS011;12205;50.600;4.608;2023-01-20T03:32:10;31.60;;;8.25;;
23990;SDS011;12205;50.600;4.608;2023-01-20T03:34:39;32.22;;;8.77;;
23990;SDS011;12205;50.600;4.608;2023-01-20T03:37:10;36.05;;;8.32;;
23990;SDS011;12205;50.600;4.608;2023-01-20T03:39:38;34.95;;;10.50;;
23990;SDS011;12205;50.600;4.608;2023-01-20T03:42:06;35.33;;;8.43;;
23990;SDS011;12205;50.600;4.608;2023-01-20T03:44:49;40.10;;;9.10;;
23990;SDS011;12205;50.600;4.608;2023-01-20T03:47:34;43.67;;;9.43;;
23990;SDS011;12205;50.600;4.608;2023-01-20T03:50:16;36.55;;;8.75;;
23990;SDS011;12205;50.600;4.608;2023-01-20T03:52:59;52.08;;;10.65;;
23990;SDS011;12205;50.600;4.608;2023-01-20T03:55:35;34.22;;;9.35;;
23990;SDS011;12205;50.600;4.608;2023-01-20T03:58:09;30.35;;;8.35;;
23990;SDS011;12205;50.600;4.608;2023-01-20T04:00:41;35.13;;;9.18;;
23990;SDS011;12205;50.600;4.608;2023-01-20T04:03:14;29.23;;;8.40;;
23990;SDS011;12205;50.600;4.608;2023-01-20T04:05:46;36.88;;;8.68;;
23990;SDS011;12205;50.600;4.608;2023-01-20T04:08:17;33.50;;;9.30;;
23990;SDS011;12205;50.600;4.608;2023-01-20T04:10:49;33.15;;;8.43;;
23990;SDS011;12205;50.600;4.608;2023-01-20T04:13:20;28.77;;;8.25;;
23990;SDS011;12205;50.600;4.608;2023-01-20T04:15:48;28.88;;;8.50;;
23990;SDS011;12205;50.600;4.608;2023-01-20T04:18:16;41.67;;;10.68;;
23990;SDS011;12205;50.600;4.608;2023-01-20T04:23:20;35.35;;;9.57;;
23990;SDS011;12205;50.600;4.608;2023-01-20T04:25:55;36.10;;;8.85;;
23990;SDS011;12205;50.600;4.608;2023-01-20T04:28:22;37.15;;;9.00;;
23990;SDS011;12205;50.600;4.608;2023-01-20T04:30:50;30.40;;;8.77;;
23990;SDS011;12205;50.600;4.608;2023-01-20T04:33:17;34.47;;;9.40;;
23990;SDS011;12205;50.600;4.608;2023-01-20T04:35:44;34.53;;;8.30;;
23990;SDS011;12205;50.600;4.608;2023-01-20T04:38:12;32.63;;;8.60;;
23990;SDS011;12205;50.600;4.608;2023-01-20T04:40:40;24.52;;;7.13;;
23990;SDS011;12205;50.600;4.608;2023-01-20T04:43:07;33.80;;;8.85;;
23990;SDS011;12205;50.600;4.608;2023-01-20T04:45:36;27.50;;;9.52;;
23990;SDS011;12205;50.600;4.608;2023-01-20T04:48:04;26.30;;;7.20;;
23990;SDS011;12205;50.600;4.608;2023-01-20T04:50:32;32.55;;;8.50;;
23990;SDS011;12205;50.600;4.608;2023-01-20T04:53:03;28.50;;;7.95;;
23990;SDS011;12205;50.600;4.608;2023-01-20T04:55:30;27.75;;;7.90;;
23990;SDS011;12205;50.600;4.608;2023-01-20T04:57:59;32.63;;;8.60;;
23990;SDS011;12205;50.600;4.608;2023-01-20T05:00:26;33.38;;;8.68;;
23990;SDS011;12205;50.600;4.608;2023-01-20T05:02:55;36.45;;;8.73;;
23990;SDS011;12205;50.600;4.608;2023-01-20T05:05:23;35.13;;;8.80;;
23990;SDS011;12205;50.600;4.608;2023-01-20T05:07:50;28.58;;;8.23;;
23990;SDS011;12205;50.600;4.608;2023-01-20T05:10:18;30.13;;;8.18;;
23990;SDS011;12205;50.600;4.608;2023-01-20T05:12:46;31.38;;;8.73;;
23990;SDS011;12205;50.600;4.608;2023-01-20T05:15:15;27.27;;;7.03;;
23990;SDS011;12205;50.600;4.608;2023-01-20T05:17:42;29.35;;;7.03;;
23990;SDS011;12205;50.600;4.608;2023-01-20T05:20:09;32.63;;;8.20;;
23990;SDS011;12205;50.600;4.608;2023-01-20T05:22:38;38.55;;;8.38;;
23990;SDS011;12205;50.600;4.608;2023-01-20T05:25:05;26.98;;;7.85;;
23990;SDS011;12205;50.600;4.608;2023-01-20T05:27:34;29.30;;;8.27;;
23990;SDS011;12205;50.600;4.608;2023-01-20T05:30:03;25.98;;;6.72;;
23990;SDS011;12205;50.600;4.608;2023-01-20T05:32:32;30.98;;;8.32;;
23990;SDS011;12205;50.600;4.608;2023-01-20T05:34:59;32.80;;;10.30;;
23990;SDS011;12205;50.600;4.608;2023-01-20T05:37:27;29.20;;;7.72;;
23990;SDS011;12205;50.600;4.608;2023-01-20T05:39:54;26.90;;;7.35;;
23990;SDS011;12205;50.600;4.608;2023-01-20T05:42:21;32.67;;;8.32;;
23990;SDS011;12205;50.600;4.608;2023-01-20T05:44:48;31.98;;;8.05;;
23990;SDS011;12205;50.600;4.608;2023-01-20T05:47:15;31.80;;;7.47;;
23990;SDS011;12205;50.600;4.608;2023-01-20T05:49:44;26.95;;;7.78;;
23990;SDS011;12205;50.600;4.608;2023-01-20T05:52:11;36.25;;;8.95;;
23990;SDS011;12205;50.600;4.608;2023-01-20T05:54:38;29.73;;;7.55;;
23990;SDS011;12205;50.600;4.608;2023-01-20T05:57:05;38.63;;;10.05;;
23990;SDS011;12205;50.600;4.608;2023-01-20T05:59:32;23.00;;;6.25;;
23990;SDS011;12205;50.600;4.608;2023-01-20T06:02:00;26.48;;;7.93;;
23990;SDS011;12205;50.600;4.608;2023-01-20T06:04:27;29.67;;;7.30;;
23990;SDS011;12205;50.600;4.608;2023-01-20T06:06:55;29.42;;;7.82;;
23990;SDS011;12205;50.600;4.608;2023-01-20T06:09:23;31.13;;;8.02;;
23990;SDS011;12205;50.600;4.608;2023-01-20T06:11:50;32.40;;;8.05;;
23990;SDS011;12205;50.600;4.608;2023-01-20T06:14:18;27.17;;;7.50;;
23990;SDS011;12205;50.600;4.608;2023-01-20T06:16:45;32.63;;;8.25;;
23990;SDS011;12205;50.600;4.608;2023-01-20T06:19:12;32.83;;;9.60;;
23990;SDS011;12205;50.600;4.608;2023-01-20T06:21:39;26.48;;;7.35;;
23990;SDS011;12205;50.600;4.608;2023-01-20T06:24:08;28.60;;;7.70;;
23990;SDS011;12205;50.600;4.608;2023-01-20T06:26:35;32.10;;;8.77;;
23990;SDS011;12205;50.600;4.608;2023-01-20T06:29:02;30.30;;;8.30;;
23990;SDS011;12205;50.600;4.608;2023-01-20T06:31:29;33.28;;;9.27;;
23990;SDS011;12205;50.600;4.608;2023-01-20T06:33:56;35.42;;;9.25;;
23990;SDS011;12205;50.600;4.608;2023-01-20T06:36:23;35.22;;;10.00;;
23990;SDS011;12205;50.600;4.608;2023-01-20T06:38:51;36.70;;;9.55;;
23990;SDS011;12205;50.600;4.608;2023-01-20T06:41:20;35.55;;;9.77;;
23990;SDS011;12205;50.600;4.608;2023-01-20T06:43:47;29.83;;;8.18;;
23990;SDS011;12205;50.600;4.608;2023-01-20T06:46:16;40.47;;;9.98;;
23990;SDS011;12205;50.600;4.608;2023-01-20T06:48:43;30.88;;;9.00;;
23990;SDS011;12205;50.600;4.608;2023-01-20T06:51:11;31.55;;;8.65;;
23990;SDS011;12205;50.600;4.608;2023-01-20T06:53:41;31.50;;;8.95;;
23990;SDS011;12205;50.600;4.608;2023-01-20T06:56:08;35.42;;;9.30;;
23990;SDS011;12205;50.600;4.608;2023-01-20T06:58:39;29.67;;;8.25;;
23990;SDS011;12205;50.600;4.608;2023-01-20T07:01:08;30.17;;;8.20;;
23990;SDS011;12205;50.600;4.608;2023-01-20T07:03:38;30.90;;;8.43;;
23990;SDS011;12205;50.600;4.608;2023-01-20T07:06:12;33.50;;;9.25;;
23990;SDS011;12205;50.600;4.608;2023-01-20T07:08:42;33.00;;;9.55;;
23990;SDS011;12205;50.600;4.608;2023-01-20T07:11:10;39.40;;;8.50;;
23990;SDS011;12205;50.600;4.608;2023-01-20T07:13:39;31.83;;;8.63;;
23990;SDS011;12205;50.600;4.608;2023-01-20T07:16:07;32.10;;;8.68;;
23990;SDS011;12205;50.600;4.608;2023-01-20T07:18:35;44.70;;;9.48;;
23990;SDS011;12205;50.600;4.608;2023-01-20T07:21:03;36.15;;;9.18;;
23990;SDS011;12205;50.600;4.608;2023-01-20T07:23:31;36.15;;;8.68;;
23990;SDS011;12205;50.600;4.608;2023-01-20T07:25:58;36.40;;;8.07;;
23990;SDS011;12205;50.600;4.608;2023-01-20T07:28:27;37.63;;;9.10;;
23990;SDS011;12205;50.600;4.608;2023-01-20T07:31:02;35.25;;;8.75;;
23990;SDS011;12205;50.600;4.608;2023-01-20T07:33:31;32.63;;;8.68;;
23990;SDS011;12205;50.600;4.608;2023-01-20T07:35:59;34.65;;;10.80;;
23990;SDS011;12205;50.600;4.608;2023-01-20T07:38:27;36.97;;;9.32;;
23990;SDS011;12205;50.600;4.608;2023-01-20T07:40:55;28.85;;;8.13;;
23990;SDS011;12205;50.600;4.608;2023-01-20T07:43:23;34.22;;;8.80;;
23990;SDS011;12205;50.600;4.608;2023-01-20T07:45:52;30.10;;;8.20;;
23990;SDS011;12205;50.600;4.608;2023-01-20T07:48:22;33.13;;;8.37;;
23990;SDS011;12205;50.600;4.608;2023-01-20T07:50:53;28.55;;;7.93;;
23990;SDS011;12205;50.600;4.608;2023-01-20T07:53:26;27.63;;;8.25;;
23990;SDS011;12205;50.600;4.608;2023-01-20T07:55:54;30.05;;;7.90;;
23990;SDS011;12205;50.600;4.608;2023-01-20T07:58:22;23.77;;;7.10;;
23990;SDS011;12205;50.600;4.608;2023-01-20T08:00:49;24.58;;;6.47;;
23990;SDS011;12205;50.600;4.608;2023-01-20T08:03:16;29.33;;;7.18;;
23990;SDS011;12205;50.600;4.608;2023-01-20T08:05:44;25.30;;;6.65;;
23990;SDS011;12205;50.600;4.608;2023-01-20T08:08:12;29.92;;;7.68;;
23990;SDS011;12205;50.600;4.608;2023-01-20T08:10:39;36.40;;;8.80;;
23990;SDS011;12205;50.600;4.608;2023-01-20T08:13:06;28.98;;;7.13;;
23990;SDS011;12205;50.600;4.608;2023-01-20T08:15:33;23.98;;;6.40;;
23990;SDS011;12205;50.600;4.608;2023-01-20T08:18:00;39.03;;;7.82;;
23990;SDS011;12205;50.600;4.608;2023-01-20T08:20:27;28.25;;;7.43;;
23990;SDS011;12205;50.600;4.608;2023-01-20T08:22:56;23.88;;;6.32;;
23990;SDS011;12205;50.600;4.608;2023-01-20T08:25:23;30.50;;;8.35;;
23990;SDS011;12205;50.600;4.608;2023-01-20T08:27:50;27.90;;;6.53;;
23990;SDS011;12205;50.600;4.608;2023-01-20T08:30:17;39.30;;;7.78;;
23990;SDS011;12205;50.600;4.608;2023-01-20T08:32:44;29.67;;;7.10;;
23990;SDS011;12205;50.600;4.608;2023-01-20T08:35:12;35.13;;;7.63;;
23990;SDS011;12205;50.600;4.608;2023-01-20T08:37:39;29.70;;;7.32;;
23990;SDS011;12205;50.600;4.608;2023-01-20T08:40:08;21.88;;;6.15;;
23990;SDS011;12205;50.600;4.608;2023-01-20T08:42:37;27.15;;;7.05;;
23990;SDS011;12205;50.600;4.608;2023-01-20T08:45:05;27.25;;;6.85;;
23990;SDS011;12205;50.600;4.608;2023-01-20T08:47:34;39.47;;;8.82;;
23990;SDS011;12205;50.600;4.608;2023-01-20T08:50:02;25.17;;;5.68;;
23990;SDS011;12205;50.600;4.608;2023-01-20T08:52:31;21.02;;;5.65;;
23990;SDS011;12205;50.600;4.608;2023-01-20T08:54:59;25.05;;;6.45;;
23990;SDS011;12205;50.600;4.608;2023-01-20T08:57:28;26.33;;;6.70;;
23990;SDS011;12205;50.600;4.608;2023-01-20T08:59:55;20.80;;;5.85;;
23990;SDS011;12205;50.600;4.608;2023-01-20T09:02:22;24.20;;;6.05;;
23990;SDS011;12205;50.600;4.608;2023-01-20T09:04:49;23.90;;;6.22;;
23990;SDS011;12205;50.600;4.608;2023-01-20T09:07:17;23.95;;;5.85;;
23990;SDS011;12205;50.600;4.608;2023-01-20T09:09:45;27.40;;;8.25;;
23990;SDS011;12205;50.600;4.608;2023-01-20T09:12:13;29.55;;;6.70;;
23990;SDS011;12205;50.600;4.608;2023-01-20T09:14:41;27.17;;;6.15;;
23990;SDS011;12205;50.600;4.608;2023-01-20T09:17:08;21.80;;;5.88;;
23990;SDS011;12205;50.600;4.608;2023-01-20T09:19:36;26.13;;;6.20;;
23990;SDS011;12205;50.600;4.608;2023-01-20T09:22:03;21.70;;;5.60;;
23990;SDS011;12205;50.600;4.608;2023-01-20T09:24:30;26.90;;;6.75;;
23990;SDS011;12205;50.600;4.608;2023-01-20T09:26:57;23.75;;;6.47;;
23990;SDS011;12205;50.600;4.608;2023-01-20T09:29:24;26.35;;;6.35;;
23990;SDS011;12205;50.600;4.608;2023-01-20T09:31:53;27.35;;;6.47;;
23990;SDS011;12205;50.600;4.608;2023-01-20T09:34:23;21.60;;;6.20;;
23990;SDS011;12205;50.600;4.608;2023-01-20T09:36:54;26.23;;;7.90;;
23990;SDS011;12205;50.600;4.608;2023-01-20T09:39:43;18.67;;;5.80;;
23990;SDS011;12205;50.600;4.608;2023-01-20T09:42:29;29.45;;;8.13;;
23990;SDS011;12205;50.600;4.608;2023-01-20T09:45:26;18.15;;;5.60;;
23990;SDS011;12205;50.600;4.608;2023-01-20T09:48:02;22.63;;;7.10;;
23990;SDS011;12205;50.600;4.608;2023-01-20T09:50:52;29.83;;;6.70;;
23990;SDS011;12205;50.600;4.608;2023-01-20T09:53:47;28.60;;;7.30;;
23990;SDS011;12205;50.600;4.608;2023-01-20T09:56:25;24.40;;;6.25;;
23990;SDS011;12205;50.600;4.608;2023-01-20T09:58:59;24.02;;;6.97;;
23990;SDS011;12205;50.600;4.608;2023-01-20T10:01:35;24.63;;;6.05;;
23990;SDS011;12205;50.600;4.608;2023-01-20T10:04:11;19.50;;;5.70;;
23990;SDS011;12205;50.600;4.608;2023-01-20T10:06:46;17.10;;;5.68;;
23990;SDS011;12205;50.600;4.608;2023-01-20T10:09:17;26.63;;;6.07;;
23990;SDS011;12205;50.600;4.608;2023-01-20T10:11:53;30.73;;;6.30;;
23990;SDS011;12205;50.600;4.608;2023-01-20T10:14:30;22.48;;;6.75;;
23990;SDS011;12205;50.600;4.608;2023-01-20T10:17:05;25.80;;;6.63;;
23990;SDS011;12205;50.600;4.608;2023-01-20T10:19:42;22.23;;;6.15;;
23990;SDS011;12205;50.600;4.608;2023-01-20T10:22:16;25.90;;;6.43;;
23990;SDS011;12205;50.600;4.608;2023-01-20T10:24:49;24.50;;;6.57;;
23990;SDS011;12205;50.600;4.608;2023-01-20T10:27:24;23.95;;;6.30;;
23990;SDS011;12205;50.600;4.608;2023-01-20T10:32:30;27.02;;;7.22;;
23990;SDS011;12205;50.600;4.608;2023-01-20T10:35:06;27.65;;;6.63;;
23990;SDS011;12205;50.600;4.608;2023-01-20T10:37:40;27.58;;;9.20;;
23990;SDS011;12205;50.600;4.608;2023-01-20T10:40:13;30.17;;;7.75;;
23990;SDS011;12205;50.600;4.608;2023-01-20T10:42:51;28.95;;;7.10;;
23990;SDS011;12205;50.600;4.608;2023-01-20T10:45:26;33.58;;;7.88;;
23990;SDS011;12205;50.600;4.608;2023-01-20T10:50:49;22.07;;;6.70;;
23990;SDS011;12205;50.600;4.608;2023-01-20T10:53:31;19.52;;;5.72;;
23990;SDS011;12205;50.600;4.608;2023-01-20T10:56:17;29.55;;;8.30;;
23990;SDS011;12205;50.600;4.608;2023-01-20T10:59:04;27.40;;;6.90;;
23990;SDS011;12205;50.600;4.608;2023-01-20T11:01:38;22.65;;;6.22;;
23990;SDS011;12205;50.600;4.608;2023-01-20T11:04:12;30.17;;;7.32;;
23990;SDS011;12205;50.600;4.608;2023-01-20T11:06:47;27.60;;;6.90;;
23990;SDS011;12205;50.600;4.608;2023-01-20T11:09:22;23.55;;;6.65;;
23990;SDS011;12205;50.600;4.608;2023-01-20T11:11:58;22.98;;;6.57;;
23990;SDS011;12205;50.600;4.608;2023-01-20T11:14:29;22.00;;;3.80;;
23990;SDS011;12205;50.600;4.608;2023-01-20T11:16:58;32.22;;;7.50;;
23990;SDS011;12205;50.600;4.608;2023-01-20T11:19:43;23.73;;;6.43;;
23990;SDS011;12205;50.600;4.608;2023-01-20T11:22:17;25.60;;;6.35;;
23990;SDS011;12205;50.600;4.608;2023-01-20T11:24:54;22.73;;;6.10;;
23990;SDS011;12205;50.600;4.608;2023-01-20T11:27:25;21.50;;;6.07;;
23990;SDS011;12205;50.600;4.608;2023-01-20T11:29:56;31.17;;;7.20;;
23990;SDS011;12205;50.600;4.608;2023-01-20T11:32:29;27.05;;;7.18;;
23990;SDS011;12205;50.600;4.608;2023-01-20T11:34:59;24.33;;;5.75;;
23990;SDS011;12205;50.600;4.608;2023-01-20T11:37:44;22.17;;;6.18;;
23990;SDS011;12205;50.600;4.608;2023-01-20T11:40:17;20.92;;;6.03;;
23990;SDS011;12205;50.600;4.608;2023-01-20T11:42:49;25.35;;;5.50;;
23990;SDS011;12205;50.600;4.608;2023-01-20T11:45:25;20.98;;;5.72;;
23990;SDS011;12205;50.600;4.608;2023-01-20T11:48:01;27.67;;;7.15;;
23990;SDS011;12205;50.600;4.608;2023-01-20T11:50:41;22.38;;;6.18;;
23990;SDS011;12205;50.600;4.608;2023-01-20T11:53:22;22.08;;;5.85;;
23990;SDS011;12205;50.600;4.608;2023-01-20T11:55:52;23.05;;;5.38;;
23990;SDS011;12205;50.600;4.608;2023-01-20T11:58:22;26.80;;;7.17;;
23990;SDS011;12205;50.600;4.608;2023-01-20T12:00:58;11.32;;;3.38;;
23990;SDS011;12205;50.600;4.608;2023-01-20T12:03:35;23.13;;;6.03;;
23990;SDS011;12205;50.600;4.608;2023-01-20T12:06:28;22.92;;;5.85;;
23990;SDS011;12205;50.600;4.608;2023-01-20T12:09:02;23.50;;;6.30;;
23990;SDS011;12205;50.600;4.608;2023-01-20T12:11:37;28.23;;;6.70;;
23990;SDS011;12205;50.600;4.608;2023-01-20T12:14:18;9.37;;;3.33;;
23990;SDS011;12205;50.600;4.608;2023-01-20T12:17:05;25.67;;;5.70;;
23990;SDS011;12205;50.600;4.608;2023-01-20T12:19:58;15.95;;;4.93;;
23990;SDS011;12205;50.600;4.608;2023-01-20T12:22:38;16.83;;;5.13;;
23990;SDS011;12205;50.600;4.608;2023-01-20T12:25:19;23.00;;;6.18;;
23990;SDS011;12205;50.600;4.608;2023-01-20T12:27:51;18.60;;;5.40;;
23990;SDS011;12205;50.600;4.608;2023-01-20T12:30:28;23.42;;;5.68;;
23990;SDS011;12205;50.600;4.608;2023-01-20T12:33:17;18.05;;;6.20;;
23990;SDS011;12205;50.600;4.608;2023-01-20T12:41:51;17.02;;;4.68;;
23990;SDS011;12205;50.600;4.608;2023-01-20T12:44:44;17.00;;;4.25;;
23990;SDS011;12205;50.600;4.608;2023-01-20T12:50:02;17.85;;;4.45;;
23990;SDS011;12205;50.600;4.608;2023-01-20T12:52:49;18.50;;;4.60;;
23990;SDS011;12205;50.600;4.608;2023-01-20T12:55:40;16.50;;;4.10;;
23990;SDS011;12205;50.600;4.608;2023-01-20T12:58:26;25.17;;;5.25;;
23990;SDS011;12205;50.600;4.608;2023-01-20T13:01:15;23.83;;;4.93;;
23990;SDS011;12205;50.600;4.608;2023-01-20T13:07:28;19.58;;;4.63;;
23990;SDS011;12205;50.600;4.608;2023-01-20T13:10:27;13.10;;;3.42;;
23990;SDS011;12205;50.600;4.608;2023-01-20T13:13:19;17.23;;;4.10;;
23990;SDS011;12205;50.600;4.608;2023-01-20T13:16:07;19.95;;;4.40;;
23990;SDS011;12205;50.600;4.608;2023-01-20T13:18:49;20.85;;;4.28;;
23990;SDS011;12205;50.600;4.608;2023-01-20T13:21:29;22.55;;;4.30;;
23990;SDS011;12205;50.600;4.608;2023-01-20T13:23:57;24.35;;;4.55;;
23990;SDS011;12205;50.600;4.608;2023-01-20T13:26:28;17.25;;;3.90;;
23990;SDS011;12205;50.600;4.608;2023-01-20T13:28:57;13.07;;;3.67;;
23990;SDS011;12205;50.600;4.608;2023-01-20T13:31:35;13.13;;;3.70;;
23990;SDS011;12205;50.600;4.608;2023-01-20T13:34:27;17.60;;;4.05;;
23990;SDS011;12205;50.600;4.608;2023-01-20T13:39:56;10.20;;;3.00;;
23990;SDS011;12205;50.600;4.608;2023-01-20T13:45:18;19.63;;;4.10;;
23990;SDS011;12205;50.600;4.608;2023-01-20T13:47:53;14.15;;;3.00;;
23990;SDS011;12205;50.600;4.608;2023-01-20T13:50:25;13.02;;;2.88;;
23990;SDS011;12205;50.600;4.608;2023-01-20T13:53:02;14.05;;;2.97;;
23990;SDS011;12205;50.600;4.608;2023-01-20T13:55:51;16.63;;;4.50;;
23990;SDS011;12205;50.600;4.608;2023-01-20T13:58:21;16.17;;;3.20;;
23990;SDS011;12205;50.600;4.608;2023-01-20T14:00:52;16.38;;;3.42;;
23990;SDS011;12205;50.600;4.608;2023-01-20T14:03:22;17.30;;;3.28;;
23990;SDS011;12205;50.600;4.608;2023-01-20T14:05:53;14.65;;;3.25;;
23990;SDS011;12205;50.600;4.608;2023-01-20T14:08:24;14.02;;;3.20;;
23990;SDS011;12205;50.600;4.608;2023-01-20T14:11:11;7.67;;;1.63;;
23990;SDS011;12205;50.600;4.608;2023-01-20T14:13:41;17.35;;;3.40;;
23990;SDS011;12205;50.600;4.608;2023-01-20T14:16:19;9.98;;;2.63;;
23990;SDS011;12205;50.600;4.608;2023-01-20T14:18:51;10.00;;;2.55;;
23990;SDS011;12205;50.600;4.608;2023-01-20T14:21:22;7.57;;;2.30;;
23990;SDS011;12205;50.600;4.608;2023-01-20T14:23:52;10.32;;;2.90;;
23990;SDS011;12205;50.600;4.608;2023-01-20T14:26:20;14.82;;;2.88;;
23990;SDS011;12205;50.600;4.608;2023-01-20T14:28:50;13.40;;;3.30;;
23990;SDS011;12205;50.600;4.608;2023-01-20T14:31:22;7.70;;;2.45;;
23990;SDS011;12205;50.600;4.608;2023-01-20T14:33:59;24.98;;;4.35;;
23990;SDS011;12205;50.600;4.608;2023-01-20T14:36:44;9.70;;;2.83;;
23990;SDS011;12205;50.600;4.608;2023-01-20T14:39:16;19.42;;;3.63;;
23990;SDS011;12205;50.600;4.608;2023-01-20T14:41:47;16.52;;;3.40;;
23990;SDS011;12205;50.600;4.608;2023-01-20T14:44:17;9.30;;;2.55;;
23990;SDS011;12205;50.600;4.608;2023-01-20T14:46:49;11.97;;;2.87;;
23990;SDS011;12205;50.600;4.608;2023-01-20T14:49:19;7.82;;;2.83;;
23990;SDS011;12205;50.600;4.608;2023-01-20T14:51:51;16.42;;;3.67;;
23990;SDS011;12205;50.600;4.608;2023-01-20T14:54:38;18.38;;;3.50;;
23990;SDS011;12205;50.600;4.608;2023-01-20T14:57:19;17.33;;;4.05;;
23990;SDS011;12205;50.600;4.608;2023-01-20T15:00:00;18.63;;;3.70;;
23990;SDS011;12205;50.600;4.608;2023-01-20T15:02:39;12.45;;;3.30;;
23990;SDS011;12205;50.600;4.608;2023-01-20T15:05:19;8.98;;;3.42;;
23990;SDS011;12205;50.600;4.608;2023-01-20T15:08:02;25.35;;;4.25;;
23990;SDS011;12205;50.600;4.608;2023-01-20T15:14:08;16.45;;;3.80;;
23990;SDS011;12205;50.600;4.608;2023-01-20T15:16:47;11.45;;;3.08;;
23990;SDS011;12205;50.600;4.608;2023-01-20T15:22:20;10.05;;;2.67;;
23990;SDS011;12205;50.600;4.608;2023-01-20T15:24:51;12.33;;;3.57;;
23990;SDS011;12205;50.600;4.608;2023-01-20T15:27:23;16.55;;;4.45;;
23990;SDS011;12205;50.600;4.608;2023-01-20T15:30:12;15.45;;;4.00;;
23990;SDS011;12205;50.600;4.608;2023-01-20T15:32:45;21.83;;;4.30;;
23990;SDS011;12205;50.600;4.608;2023-01-20T15:35:15;17.33;;;3.60;;
23990;SDS011;12205;50.600;4.608;2023-01-20T15:37:47;24.27;;;4.68;;